sensor_id;sensor_type;location;lat;lon;timestamp;P1;durP1;ratioP1;P2;durP2;ratioP2
21213;SDS011;10764;50.850;2.904;2023-02-01T00:02:13;3.93;;;1.17;;
21213;SDS011;10764;50.850;2.904;2023-02-01T00:04:40;3.65;;;1.30;;
21213;SDS011;10764;50.850;2.904;2023-02-01T00:07:07;4.72;;;1.33;;
21213;SDS011;10764;50.850;2.904;2023-02-01T00:09:34;4.15;;;1.40;;
21213;SDS011;10764;50.850;2.904;2023-02-01T00:12:01;3.63;;;1.43;;
21213;SDS011;10764;50.850;2.904;2023-02-01T00:14:29;3.93;;;1.20;;
21213;SDS011;10764;50.850;2.904;2023-02-01T00:16:56;4.72;;;1.42;;
21213;SDS011;10764;50.850;2.904;2023-02-01T00:19:23;3.92;;;1.30;;
21213;SDS011;10764;50.850;2.904;2023-02-01T00:21:50;5.07;;;1.50;;
21213;SDS011;10764;50.850;2.904;2023-02-01T00:24:16;3.70;;;1.40;;
21213;SDS011;10764;50.850;2.904;2023-02-01T00:26:44;5.87;;;1.80;;
21213;SDS011;10764;50.850;2.904;2023-02-01T00:29:14;5.18;;;1.50;;
21213;SDS011;10764;50.850;2.904;2023-02-01T00:31:42;5.60;;;1.58;;
21213;SDS011;10764;50.850;2.904;2023-02-01T00:34:14;4.50;;;1.45;;
21213;SDS011;10764;50.850;2.904;2023-02-01T00:36:42;5.10;;;1.35;;
21213;SDS011;10764;50.850;2.904;2023-02-01T00:39:09;3.35;;;1.30;;
21213;SDS011;10764;50.850;2.904;2023-02-01T00:41:37;7.13;;;1.27;;
21213;SDS011;10764;50.850;2.904;2023-02-01T00:44:04;3.75;;;1.30;;
21213;SDS011;10764;50.850;2.904;2023-02-01T00:46:31;3.58;;;1.33;;
21213;SDS011;10764;50.850;2.904;2023-02-01T00:48:58;3.77;;;1.23;;
21213;SDS011;10764;50.850;2.904;2023-02-01T00:51:26;6.22;;;1.20;;
21213;SDS011;10764;50.850;2.904;2023-02-01T00:53:54;5.53;;;1.65;;
21213;SDS011;10764;50.850;2.904;2023-02-01T00:56:21;6.13;;;1.77;;
21213;SDS011;10764;50.850;2.904;2023-02-01T00:58:49;5.18;;;1.52;;
21213;SDS011;10764;50.850;2.904;2023-02-01T01:01:20;4.10;;;1.42;;
21213;SDS011;10764;50.850;2.904;2023-02-01T01:03:50;4.57;;;1.15;;
21213;SDS011;10764;50.850;2.904;2023-02-01T01:06:20;4.80;;;1.30;;
21213;SDS011;10764;50.850;2.904;2023-02-01T01:08:50;4.75;;;1.30;;
21213;SDS011;10764;50.850;2.904;2023-02-01T01:11:21;5.18;;;1.60;;
21213;SDS011;10764;50.850;2.904;2023-02-01T01:13:50;4.60;;;1.40;;
21213;SDS011;10764;50.850;2.904;2023-02-01T01:16:19;2.83;;;1.23;;
21213;SDS011;10764;50.850;2.904;2023-02-01T01:18:47;4.28;;;1.50;;
21213;SDS011;10764;50.850;2.904;2023-02-01T01:21:15;4.82;;;1.30;;
21213;SDS011;10764;50.850;2.904;2023-02-01T01:23:43;3.88;;;1.50;;
21213;SDS011;10764;50.850;2.904;2023-02-01T01:26:18;4.93;;;1.60;;
21213;SDS011;10764;50.850;2.904;2023-02-01T01:28:47;3.92;;;1.27;;
21213;SDS011;10764;50.850;2.904;2023-02-01T01:31:15;4.70;;;1.45;;
21213;SDS011;10764;50.850;2.904;2023-02-01T01:33:43;4.68;;;1.40;;
21213;SDS011;10764;50.850;2.904;2023-02-01T01:36:14;4.57;;;1.58;;
21213;SDS011;10764;50.850;2.904;2023-02-01T01:38:41;4.63;;;1.33;;
21213;SDS011;10764;50.850;2.904;2023-02-01T01:41:12;4.87;;;1.60;;
21213;SDS011;10764;50.850;2.904;2023-02-01T01:46:21;5.22;;;1.33;;
21213;SDS011;10764;50.850;2.904;2023-02-01T01:48:52;4.88;;;1.35;;
21213;SDS011;10764;50.850;2.904;2023-02-01T01:51:25;4.30;;;1.60;;
21213;SDS011;10764;50.850;2.904;2023-02-01T01:54:17;3.70;;;1.25;;
21213;SDS011;10764;50.850;2.904;2023-02-01T01:56:48;4.60;;;1.73;;
21213;SDS011;10764;50.850;2.904;2023-02-01T01:59:20;4.63;;;1.27;;
21213;SDS011;10764;50.850;2.904;2023-02-01T02:01:49;5.72;;;1.38;;
21213;SDS011;10764;50.850;2.904;2023-02-01T02:04:16;4.73;;;1.50;;
21213;SDS011;10764;50.850;2.904;2023-02-01T02:06:51;4.00;;;1.50;;
21213;SDS011;10764;50.850;2.904;2023-02-01T02:09:23;4.22;;;1.30;;
21213;SDS011;10764;50.850;2.904;2023-02-01T02:11:50;4.90;;;1.60;;
21213;SDS011;10764;50.850;2.904;2023-02-01T02:14:18;4.13;;;1.40;;
21213;SDS011;10764;50.850;2.904;2023-02-01T02:19:41;5.07;;;1.40;;
21213;SDS011;10764;50.850;2.904;2023-02-01T02:34:52;3.97;;;1.27;;
21213;SDS011;10764;50.850;2.904;2023-02-01T02:37:28;5.93;;;1.73;;
21213;SDS011;10764;50.850;2.904;2023-02-01T02:40:15;6.25;;;1.45;;
21213;SDS011;10764;50.850;2.904;2023-02-01T02:45:48;4.38;;;1.40;;
21213;SDS011;10764;50.850;2.904;2023-02-01T02:48:46;4.72;;;1.48;;
21213;SDS011;10764;50.850;2.904;2023-02-01T02:51:27;5.82;;;1.45;;
21213;SDS011;10764;50.850;2.904;2023-02-01T02:54:18;5.22;;;1.67;;
21213;SDS011;10764;50.850;2.904;2023-02-01T02:57:10;4.88;;;1.40;;
21213;SDS011;10764;50.850;2.904;2023-02-01T03:00:11;5.13;;;1.55;;
21213;SDS011;10764;50.850;2.904;2023-02-01T03:02:59;6.55;;;1.70;;
21213;SDS011;10764;50.850;2.904;2023-02-01T03:05:46;3.78;;;1.40;;
21213;SDS011;10764;50.850;2.904;2023-02-01T03:08:18;5.55;;;1.50;;
21213;SDS011;10764;50.850;2.904;2023-02-01T03:11:06;5.00;;;1.50;;
21213;SDS011;10764;50.850;2.904;2023-02-01T03:16:11;3.95;;;1.30;;
21213;SDS011;10764;50.850;2.904;2023-02-01T03:24:12;5.15;;;1.80;;
21213;SDS011;10764;50.850;2.904;2023-02-01T03:26:48;4.97;;;1.40;;
21213;SDS011;10764;50.850;2.904;2023-02-01T03:29:22;3.47;;;1.30;;
21213;SDS011;10764;50.850;2.904;2023-02-01T03:31:52;5.55;;;1.45;;
21213;SDS011;10764;50.850;2.904;2023-02-01T03:34:19;6.15;;;1.52;;
21213;SDS011;10764;50.850;2.904;2023-02-01T03:36:48;5.50;;;1.43;;
21213;SDS011;10764;50.850;2.904;2023-02-01T03:42:16;5.40;;;1.63;;
21213;SDS011;10764;50.850;2.904;2023-02-01T03:44:49;4.13;;;1.40;;
21213;SDS011;10764;50.850;2.904;2023-02-01T03:47:25;4.80;;;1.60;;
21213;SDS011;10764;50.850;2.904;2023-02-01T03:49:56;5.03;;;1.60;;
21213;SDS011;10764;50.850;2.904;2023-02-01T03:52:32;5.03;;;1.63;;
21213;SDS011;10764;50.850;2.904;2023-02-01T03:55:15;5.10;;;1.70;;
21213;SDS011;10764;50.850;2.904;2023-02-01T03:57:47;4.63;;;1.33;;
21213;SDS011;10764;50.850;2.904;2023-02-01T04:00:24;4.40;;;1.65;;
21213;SDS011;10764;50.850;2.904;2023-02-01T04:02:54;3.97;;;1.45;;
21213;SDS011;10764;50.850;2.904;2023-02-01T04:05:22;3.67;;;1.10;;
21213;SDS011;10764;50.850;2.904;2023-02-01T04:08:15;4.88;;;1.42;;
21213;SDS011;10764;50.850;2.904;2023-02-01T04:10:44;5.07;;;1.50;;
21213;SDS011;10764;50.850;2.904;2023-02-01T04:13:10;4.23;;;1.30;;
21213;SDS011;10764;50.850;2.904;2023-02-01T04:15:38;4.60;;;1.40;;
21213;SDS011;10764;50.850;2.904;2023-02-01T04:18:05;4.87;;;1.43;;
21213;SDS011;10764;50.850;2.904;2023-02-01T04:20:32;4.25;;;1.38;;
21213;SDS011;10764;50.850;2.904;2023-02-01T04:22:59;5.13;;;1.42;;
21213;SDS011;10764;50.850;2.904;2023-02-01T04:25:29;6.35;;;1.38;;
21213;SDS011;10764;50.850;2.904;2023-02-01T04:27:56;5.25;;;1.38;;
21213;SDS011;10764;50.850;2.904;2023-02-01T04:30:22;4.05;;;1.33;;
21213;SDS011;10764;50.850;2.904;2023-02-01T04:32:50;5.65;;;1.60;;
21213;SDS011;10764;50.850;2.904;2023-02-01T04:35:17;4.90;;;1.50;;
21213;SDS011;10764;50.850;2.904;2023-02-01T04:37:44;5.10;;;1.45;;
21213;SDS011;10764;50.850;2.904;2023-02-01T04:40:11;4.57;;;1.60;;
21213;SDS011;10764;50.850;2.904;2023-02-01T04:42:38;3.65;;;1.27;;
21213;SDS011;10764;50.850;2.904;2023-02-01T04:45:05;6.20;;;1.60;;
21213;SDS011;10764;50.850;2.904;2023-02-01T04:47:32;4.60;;;1.60;;
21213;SDS011;10764;50.850;2.904;2023-02-01T04:50:00;4.88;;;1.33;;
21213;SDS011;10764;50.850;2.904;2023-02-01T04:52:27;4.60;;;1.30;;
21213;SDS011;10764;50.850;2.904;2023-02-01T04:54:54;4.30;;;1.40;;
21213;SDS011;10764;50.850;2.904;2023-02-01T04:57:24;5.60;;;1.40;;
21213;SDS011;10764;50.850;2.904;2023-02-01T04:59:51;5.03;;;1.45;;
21213;SDS011;10764;50.850;2.904;2023-02-01T05:02:18;4.97;;;1.42;;
21213;SDS011;10764;50.850;2.904;2023-02-01T05:04:45;4.93;;;1.50;;
21213;SDS011;10764;50.850;2.904;2023-02-01T05:07:12;3.85;;;1.30;;
21213;SDS011;10764;50.850;2.904;2023-02-01T05:09:38;4.70;;;1.50;;
21213;SDS011;10764;50.850;2.904;2023-02-01T05:12:05;3.93;;;1.23;;
21213;SDS011;10764;50.850;2.904;2023-02-01T05:14:50;4.40;;;1.45;;
21213;SDS011;10764;50.850;2.904;2023-02-01T05:17:18;6.13;;;1.90;;
21213;SDS011;10764;50.850;2.904;2023-02-01T05:19:45;5.50;;;1.50;;
21213;SDS011;10764;50.850;2.904;2023-02-01T05:22:12;3.23;;;1.23;;
21213;SDS011;10764;50.850;2.904;2023-02-01T05:24:38;6.32;;;1.75;;
21213;SDS011;10764;50.850;2.904;2023-02-01T05:27:05;5.22;;;1.73;;
21213;SDS011;10764;50.850;2.904;2023-02-01T05:29:32;4.85;;;1.33;;
21213;SDS011;10764;50.850;2.904;2023-02-01T05:31:59;5.20;;;1.70;;
21213;SDS011;10764;50.850;2.904;2023-02-01T05:34:37;6.50;;;1.58;;
21213;SDS011;10764;50.850;2.904;2023-02-01T05:37:03;6.53;;;1.70;;
21213;SDS011;10764;50.850;2.904;2023-02-01T05:39:31;5.05;;;1.45;;
21213;SDS011;10764;50.850;2.904;2023-02-01T05:41:58;5.05;;;1.40;;
21213;SDS011;10764;50.850;2.904;2023-02-01T05:44:25;2.63;;;1.00;;
21213;SDS011;10764;50.850;2.904;2023-02-01T05:46:53;5.78;;;1.50;;
21213;SDS011;10764;50.850;2.904;2023-02-01T05:49:20;5.70;;;1.60;;
21213;SDS011;10764;50.850;2.904;2023-02-01T05:51:48;6.45;;;1.90;;
21213;SDS011;10764;50.850;2.904;2023-02-01T05:54:15;5.93;;;1.83;;
21213;SDS011;10764;50.850;2.904;2023-02-01T05:56:42;4.10;;;1.42;;
21213;SDS011;10764;50.850;2.904;2023-02-01T05:59:09;4.90;;;1.37;;
21213;SDS011;10764;50.850;2.904;2023-02-01T06:01:37;5.72;;;1.40;;
21213;SDS011;10764;50.850;2.904;2023-02-01T06:04:04;4.25;;;1.45;;
21213;SDS011;10764;50.850;2.904;2023-02-01T06:06:31;7.60;;;1.60;;
21213;SDS011;10764;50.850;2.904;2023-02-01T06:08:58;4.25;;;1.25;;
21213;SDS011;10764;50.850;2.904;2023-02-01T06:11:26;3.67;;;1.45;;
21213;SDS011;10764;50.850;2.904;2023-02-01T06:14:01;4.63;;;1.50;;
21213;SDS011;10764;50.850;2.904;2023-02-01T06:16:27;5.53;;;1.60;;
21213;SDS011;10764;50.850;2.904;2023-02-01T06:18:54;4.20;;;1.33;;
21213;SDS011;10764;50.850;2.904;2023-02-01T06:21:21;4.60;;;1.30;;
21213;SDS011;10764;50.850;2.904;2023-02-01T06:23:51;5.33;;;1.83;;
21213;SDS011;10764;50.850;2.904;2023-02-01T06:26:18;4.78;;;1.52;;
21213;SDS011;10764;50.850;2.904;2023-02-01T06:28:46;5.25;;;1.40;;
21213;SDS011;10764;50.850;2.904;2023-02-01T06:31:12;4.93;;;1.48;;
21213;SDS011;10764;50.850;2.904;2023-02-01T06:33:39;4.32;;;1.40;;
21213;SDS011;10764;50.850;2.904;2023-02-01T06:36:09;3.78;;;1.40;;
21213;SDS011;10764;50.850;2.904;2023-02-01T06:38:38;4.45;;;1.23;;
21213;SDS011;10764;50.850;2.904;2023-02-01T06:41:05;4.80;;;1.42;;
21213;SDS011;10764;50.850;2.904;2023-02-01T06:43:32;4.82;;;1.70;;
21213;SDS011;10764;50.850;2.904;2023-02-01T06:46:03;4.57;;;1.70;;
21213;SDS011;10764;50.850;2.904;2023-02-01T06:48:32;5.20;;;1.30;;
21213;SDS011;10764;50.850;2.904;2023-02-01T06:50:59;4.87;;;1.50;;
21213;SDS011;10764;50.850;2.904;2023-02-01T06:53:26;4.97;;;1.40;;
21213;SDS011;10764;50.850;2.904;2023-02-01T06:55:54;4.75;;;1.60;;
21213;SDS011;10764;50.850;2.904;2023-02-01T06:58:22;4.00;;;1.60;;
21213;SDS011;10764;50.850;2.904;2023-02-01T07:00:49;5.93;;;1.60;;
21213;SDS011;10764;50.850;2.904;2023-02-01T07:03:16;5.82;;;1.50;;
21213;SDS011;10764;50.850;2.904;2023-02-01T07:05:44;5.28;;;1.40;;
21213;SDS011;10764;50.850;2.904;2023-02-01T07:08:11;4.60;;;1.42;;
21213;SDS011;10764;50.850;2.904;2023-02-01T07:10:38;5.72;;;1.45;;
21213;SDS011;10764;50.850;2.904;2023-02-01T07:13:04;5.05;;;1.50;;
21213;SDS011;10764;50.850;2.904;2023-02-01T07:15:31;5.55;;;1.38;;
21213;SDS011;10764;50.850;2.904;2023-02-01T07:17:58;7.35;;;1.50;;
21213;SDS011;10764;50.850;2.904;2023-02-01T07:20:25;10.75;;;2.05;;
21213;SDS011;10764;50.850;2.904;2023-02-01T07:22:55;5.03;;;1.40;;
21213;SDS011;10764;50.850;2.904;2023-02-01T07:25:23;4.55;;;1.38;;
21213;SDS011;10764;50.850;2.904;2023-02-01T07:27:51;4.22;;;1.33;;
21213;SDS011;10764;50.850;2.904;2023-02-01T07:30:18;7.20;;;1.60;;
21213;SDS011;10764;50.850;2.904;2023-02-01T07:32:45;5.63;;;1.50;;
21213;SDS011;10764;50.850;2.904;2023-02-01T07:35:12;6.75;;;1.70;;
21213;SDS011;10764;50.850;2.904;2023-02-01T07:37:40;5.45;;;1.60;;
21213;SDS011;10764;50.850;2.904;2023-02-01T07:40:07;7.10;;;1.60;;
21213;SDS011;10764;50.850;2.904;2023-02-01T07:42:35;5.82;;;1.40;;
21213;SDS011;10764;50.850;2.904;2023-02-01T07:45:02;6.70;;;1.63;;
21213;SDS011;10764;50.850;2.904;2023-02-01T07:47:48;6.75;;;1.67;;
21213;SDS011;10764;50.850;2.904;2023-02-01T07:50:17;5.18;;;1.52;;
21213;SDS011;10764;50.850;2.904;2023-02-01T07:52:47;4.80;;;1.50;;
21213;SDS011;10764;50.850;2.904;2023-02-01T07:55:16;6.88;;;1.83;;
21213;SDS011;10764;50.850;2.904;2023-02-01T07:57:43;9.13;;;1.80;;
21213;SDS011;10764;50.850;2.904;2023-02-01T08:00:10;10.07;;;2.00;;
21213;SDS011;10764;50.850;2.904;2023-02-01T08:02:59;8.55;;;2.00;;
21213;SDS011;10764;50.850;2.904;2023-02-01T08:05:27;8.75;;;2.05;;
21213;SDS011;10764;50.850;2.904;2023-02-01T08:07:53;9.13;;;2.00;;
21213;SDS011;10764;50.850;2.904;2023-02-01T08:10:20;9.10;;;1.67;;
21213;SDS011;10764;50.850;2.904;2023-02-01T08:12:47;6.75;;;1.60;;
21213;SDS011;10764;50.850;2.904;2023-02-01T08:15:15;8.87;;;2.23;;
21213;SDS011;10764;50.850;2.904;2023-02-01T08:17:48;7.65;;;1.80;;
21213;SDS011;10764;50.850;2.904;2023-02-01T08:20:16;7.47;;;1.70;;
21213;SDS011;10764;50.850;2.904;2023-02-01T08:22:44;8.75;;;1.88;;
21213;SDS011;10764;50.850;2.904;2023-02-01T08:25:11;8.23;;;2.00;;
21213;SDS011;10764;50.850;2.904;2023-02-01T08:27:41;6.72;;;1.67;;
21213;SDS011;10764;50.850;2.904;2023-02-01T08:30:08;7.63;;;1.80;;
21213;SDS011;10764;50.850;2.904;2023-02-01T08:32:36;8.35;;;1.60;;
21213;SDS011;10764;50.850;2.904;2023-02-01T08:35:03;8.13;;;1.73;;
21213;SDS011;10764;50.850;2.904;2023-02-01T08:37:30;11.73;;;1.90;;
21213;SDS011;10764;50.850;2.904;2023-02-01T08:39:58;9.38;;;1.83;;
21213;SDS011;10764;50.850;2.904;2023-02-01T08:42:24;12.43;;;1.80;;
21213;SDS011;10764;50.850;2.904;2023-02-01T08:45:10;6.75;;;1.33;;
21213;SDS011;10764;50.850;2.904;2023-02-01T08:47:39;6.95;;;1.75;;
21213;SDS011;10764;50.850;2.904;2023-02-01T08:50:06;7.35;;;1.80;;
21213;SDS011;10764;50.850;2.904;2023-02-01T08:52:33;6.15;;;1.70;;
21213;SDS011;10764;50.850;2.904;2023-02-01T08:55:03;5.55;;;1.60;;
21213;SDS011;10764;50.850;2.904;2023-02-01T08:57:30;7.60;;;1.83;;
21213;SDS011;10764;50.850;2.904;2023-02-01T08:59:59;7.25;;;1.67;;
21213;SDS011;10764;50.850;2.904;2023-02-01T09:02:26;7.10;;;1.63;;
21213;SDS011;10764;50.850;2.904;2023-02-01T09:04:53;9.88;;;1.88;;
21213;SDS011;10764;50.850;2.904;2023-02-01T09:07:21;6.35;;;1.73;;
21213;SDS011;10764;50.850;2.904;2023-02-01T09:09:48;6.78;;;1.80;;
21213;SDS011;10764;50.850;2.904;2023-02-01T09:12:15;7.75;;;2.13;;
21213;SDS011;10764;50.850;2.904;2023-02-01T09:14:42;5.85;;;1.60;;
21213;SDS011;10764;50.850;2.904;2023-02-01T09:17:11;7.28;;;2.10;;
21213;SDS011;10764;50.850;2.904;2023-02-01T09:19:39;8.02;;;2.03;;
21213;SDS011;10764;50.850;2.904;2023-02-01T09:22:08;6.93;;;1.80;;
21213;SDS011;10764;50.850;2.904;2023-02-01T09:24:35;7.30;;;1.88;;
21213;SDS011;10764;50.850;2.904;2023-02-01T09:27:02;7.43;;;1.90;;
21213;SDS011;10764;50.850;2.904;2023-02-01T09:29:31;8.17;;;1.93;;
21213;SDS011;10764;50.850;2.904;2023-02-01T09:31:57;5.43;;;1.70;;
21213;SDS011;10764;50.850;2.904;2023-02-01T09:34:29;7.50;;;1.87;;
21213;SDS011;10764;50.850;2.904;2023-02-01T09:36:56;7.60;;;2.17;;
21213;SDS011;10764;50.850;2.904;2023-02-01T09:39:23;8.00;;;2.10;;
21213;SDS011;10764;50.850;2.904;2023-02-01T09:47:37;9.85;;;2.22;;
21213;SDS011;10764;50.850;2.904;2023-02-01T09:50:22;7.65;;;1.92;;
21213;SDS011;10764;50.850;2.904;2023-02-01T09:55:53;6.70;;;1.70;;
21213;SDS011;10764;50.850;2.904;2023-02-01T09:58:35;6.10;;;1.60;;
21213;SDS011;10764;50.850;2.904;2023-02-01T10:01:23;7.78;;;2.17;;
21213;SDS011;10764;50.850;2.904;2023-02-01T10:04:02;6.93;;;1.77;;
21213;SDS011;10764;50.850;2.904;2023-02-01T10:06:57;6.93;;;1.98;;
21213;SDS011;10764;50.850;2.904;2023-02-01T10:12:31;5.90;;;1.85;;
21213;SDS011;10764;50.850;2.904;2023-02-01T10:26:01;6.45;;;2.00;;
21213;SDS011;10764;50.850;2.904;2023-02-01T10:28:34;8.60;;;2.30;;
21213;SDS011;10764;50.850;2.904;2023-02-01T10:31:06;7.30;;;2.00;;
21213;SDS011;10764;50.850;2.904;2023-02-01T10:33:41;5.40;;;1.77;;
21213;SDS011;10764;50.850;2.904;2023-02-01T10:38:49;6.60;;;1.75;;
21213;SDS011;10764;50.850;2.904;2023-02-01T10:41:22;5.40;;;1.70;;
21213;SDS011;10764;50.850;2.904;2023-02-01T10:43:53;6.35;;;1.60;;
21213;SDS011;10764;50.850;2.904;2023-02-01T10:46:23;6.80;;;1.83;;
21213;SDS011;10764;50.850;2.904;2023-02-01T10:48:50;7.40;;;1.90;;
21213;SDS011;10764;50.850;2.904;2023-02-01T10:51:24;8.27;;;2.15;;
21213;SDS011;10764;50.850;2.904;2023-02-01T10:54:11;5.55;;;1.55;;
21213;SDS011;10764;50.850;2.904;2023-02-01T10:56:47;5.88;;;1.67;;
21213;SDS011;10764;50.850;2.904;2023-02-01T10:59:16;6.30;;;1.75;;
21213;SDS011;10764;50.850;2.904;2023-02-01T11:01:48;6.25;;;1.73;;
21213;SDS011;10764;50.850;2.904;2023-02-01T11:04:19;6.27;;;1.60;;
21213;SDS011;10764;50.850;2.904;2023-02-01T11:07:16;6.40;;;1.60;;
21213;SDS011;10764;50.850;2.904;2023-02-01T11:09:53;6.23;;;1.50;;
21213;SDS011;10764;50.850;2.904;2023-02-01T11:14:58;6.05;;;1.80;;
21213;SDS011;10764;50.850;2.904;2023-02-01T11:17:32;7.65;;;1.73;;
21213;SDS011;10764;50.850;2.904;2023-02-01T11:20:08;7.38;;;1.80;;
21213;SDS011;10764;50.850;2.904;2023-02-01T11:22:54;6.43;;;1.60;;
21213;SDS011;10764;50.850;2.904;2023-02-01T11:25:22;4.95;;;1.48;;
21213;SDS011;10764;50.850;2.904;2023-02-01T11:27:51;5.82;;;1.60;;
21213;SDS011;10764;50.850;2.904;2023-02-01T11:30:38;6.53;;;1.73;;
21213;SDS011;10764;50.850;2.904;2023-02-01T11:33:07;6.03;;;1.48;;
21213;SDS011;10764;50.850;2.904;2023-02-01T11:35:41;5.03;;;1.50;;
21213;SDS011;10764;50.850;2.904;2023-02-01T11:38:23;5.32;;;1.67;;
21213;SDS011;10764;50.850;2.904;2023-02-01T11:41:10;7.93;;;1.60;;
21213;SDS011;10764;50.850;2.904;2023-02-01T11:43:58;6.73;;;1.40;;
21213;SDS011;10764;50.850;2.904;2023-02-01T11:46:28;4.87;;;1.50;;
21213;SDS011;10764;50.850;2.904;2023-02-01T11:48:57;5.53;;;1.48;;
21213;SDS011;10764;50.850;2.904;2023-02-01T11:51:58;7.25;;;1.60;;
21213;SDS011;10764;50.850;2.904;2023-02-01T11:57:11;5.47;;;1.65;;
21213;SDS011;10764;50.850;2.904;2023-02-01T12:05:04;5.00;;;1.20;;
21213;SDS011;10764;50.850;2.904;2023-02-01T12:07:50;4.95;;;1.40;;
21213;SDS011;10764;50.850;2.904;2023-02-01T12:11:04;4.97;;;1.55;;
21213;SDS011;10764;50.850;2.904;2023-02-01T12:13:31;5.37;;;1.70;;
21213;SDS011;10764;50.850;2.904;2023-02-01T12:16:37;7.65;;;1.40;;
21213;SDS011;10764;50.850;2.904;2023-02-01T12:40:26;10.50;;;3.22;;
21213;SDS011;10764;50.850;2.904;2023-02-01T12:42:52;10.57;;;3.07;;
21213;SDS011;10764;50.850;2.904;2023-02-01T12:45:49;13.25;;;3.50;;
21213;SDS011;10764;50.850;2.904;2023-02-01T12:51:19;11.82;;;3.70;;
21213;SDS011;10764;50.850;2.904;2023-02-01T12:54:02;11.73;;;3.47;;
21213;SDS011;10764;50.850;2.904;2023-02-01T12:57:00;10.27;;;3.40;;
21213;SDS011;10764;50.850;2.904;2023-02-01T12:59:36;11.27;;;3.33;;
21213;SDS011;10764;50.850;2.904;2023-02-01T13:04:47;10.80;;;3.35;;
21213;SDS011;10764;50.850;2.904;2023-02-01T13:07:29;9.77;;;2.80;;
21213;SDS011;10764;50.850;2.904;2023-02-01T13:11:08;9.60;;;3.17;;
21213;SDS011;10764;50.850;2.904;2023-02-01T13:13:22;9.40;;;3.10;;
21213;SDS011;10764;50.850;2.904;2023-02-01T13:15:57;9.27;;;3.15;;
21213;SDS011;10764;50.850;2.904;2023-02-01T13:18:34;9.93;;;3.20;;
21213;SDS011;10764;50.850;2.904;2023-02-01T13:21:12;11.43;;;3.25;;
21213;SDS011;10764;50.850;2.904;2023-02-01T13:23:44;10.68;;;3.22;;
21213;SDS011;10764;50.850;2.904;2023-02-01T13:26:14;9.77;;;2.90;;
21213;SDS011;10764;50.850;2.904;2023-02-01T13:28:48;10.98;;;2.95;;
21213;SDS011;10764;50.850;2.904;2023-02-01T13:31:33;10.55;;;3.13;;
21213;SDS011;10764;50.850;2.904;2023-02-01T13:34:40;11.15;;;2.83;;
21213;SDS011;10764;50.850;2.904;2023-02-01T13:43:33;10.88;;;2.80;;
21213;SDS011;10764;50.850;2.904;2023-02-01T13:45:57;7.38;;;2.45;;
21213;SDS011;10764;50.850;2.904;2023-02-01T13:48:35;12.38;;;3.05;;
21213;SDS011;10764;50.850;2.904;2023-02-01T13:51:13;9.52;;;2.72;;
21213;SDS011;10764;50.850;2.904;2023-02-01T13:53:44;9.30;;;2.97;;
21213;SDS011;10764;50.850;2.904;2023-02-01T13:56:18;9.90;;;3.00;;
21213;SDS011;10764;50.850;2.904;2023-02-01T13:58:46;9.40;;;2.45;;
21213;SDS011;10764;50.850;2.904;2023-02-01T14:03:51;7.13;;;2.35;;
21213;SDS011;10764;50.850;2.904;2023-02-01T14:19:22;6.93;;;2.50;;
21213;SDS011;10764;50.850;2.904;2023-02-01T14:21:54;8.98;;;2.55;;
21213;SDS011;10764;50.850;2.904;2023-02-01T14:24:29;9.65;;;2.30;;
21213;SDS011;10764;50.850;2.904;2023-02-01T14:27:01;6.75;;;2.30;;
21213;SDS011;10764;50.850;2.904;2023-02-01T14:29:52;7.97;;;2.53;;
21213;SDS011;10764;50.850;2.904;2023-02-01T14:32:25;6.40;;;2.10;;
21213;SDS011;10764;50.850;2.904;2023-02-01T14:34:58;8.80;;;2.38;;
21213;SDS011;10764;50.850;2.904;2023-02-01T14:37:31;7.20;;;2.10;;
21213;SDS011;10764;50.850;2.904;2023-02-01T14:40:03;8.10;;;2.47;;
21213;SDS011;10764;50.850;2.904;2023-02-01T14:42:39;9.17;;;2.57;;
21213;SDS011;10764;50.850;2.904;2023-02-01T14:47:49;8.85;;;2.25;;
21213;SDS011;10764;50.850;2.904;2023-02-01T14:50:20;7.53;;;2.42;;
21213;SDS011;10764;50.850;2.904;2023-02-01T14:52:58;8.13;;;2.00;;
21213;SDS011;10764;50.850;2.904;2023-02-01T14:58:41;6.80;;;2.10;;
21213;SDS011;10764;50.850;2.904;2023-02-01T15:01:33;7.45;;;1.80;;
21213;SDS011;10764;50.850;2.904;2023-02-01T15:09:30;6.10;;;1.88;;
21213;SDS011;10764;50.850;2.904;2023-02-01T15:14:47;7.63;;;2.00;;
21213;SDS011;10764;50.850;2.904;2023-02-01T15:17:31;7.43;;;2.23;;
21213;SDS011;10764;50.850;2.904;2023-02-01T15:20:24;5.88;;;2.05;;
21213;SDS011;10764;50.850;2.904;2023-02-01T15:23:01;6.60;;;1.95;;
21213;SDS011;10764;50.850;2.904;2023-02-01T15:25:35;6.05;;;1.80;;
21213;SDS011;10764;50.850;2.904;2023-02-01T15:28:05;6.53;;;2.00;;
21213;SDS011;10764;50.850;2.904;2023-02-01T15:30:38;7.10;;;1.92;;
21213;SDS011;10764;50.850;2.904;2023-02-01T15:33:16;6.82;;;2.00;;
21213;SDS011;10764;50.850;2.904;2023-02-01T15:35:48;7.90;;;2.30;;
21213;SDS011;10764;50.850;2.904;2023-02-01T15:40:57;8.00;;;2.30;;
21213;SDS011;10764;50.850;2.904;2023-02-01T15:46:34;6.57;;;2.05;;
21213;SDS011;10764;50.850;2.904;2023-02-01T15:49:05;8.50;;;2.00;;
21213;SDS011;10764;50.850;2.904;2023-02-01T15:51:51;5.75;;;1.85;;
21213;SDS011;10764;50.850;2.904;2023-02-01T15:54:35;5.83;;;1.70;;
21213;SDS011;10764;50.850;2.904;2023-02-01T15:57:12;6.53;;;1.80;;
21213;SDS011;10764;50.850;2.904;2023-02-01T15:59:48;5.80;;;1.60;;
21213;SDS011;10764;50.850;2.904;2023-02-01T16:02:29;8.57;;;2.10;;
21213;SDS011;10764;50.850;2.904;2023-02-01T16:05:21;4.88;;;1.77;;
21213;SDS011;10764;50.850;2.904;2023-02-01T16:10:42;5.80;;;2.03;;
21213;SDS011;10764;50.850;2.904;2023-02-01T16:13:11;8.50;;;2.07;;
21213;SDS011;10764;50.850;2.904;2023-02-01T16:15:39;6.38;;;2.08;;
21213;SDS011;10764;50.850;2.904;2023-02-01T16:18:06;6.55;;;2.00;;
21213;SDS011;10764;50.850;2.904;2023-02-01T16:20:37;7.68;;;2.00;;
21213;SDS011;10764;50.850;2.904;2023-02-01T16:23:05;7.70;;;2.10;;
21213;SDS011;10764;50.850;2.904;2023-02-01T16:25:33;7.28;;;2.28;;
21213;SDS011;10764;50.850;2.904;2023-02-01T16:28:01;8.68;;;1.80;;
21213;SDS011;10764;50.850;2.904;2023-02-01T16:30:28;7.00;;;1.92;;
21213;SDS011;10764;50.850;2.904;2023-02-01T16:32:57;6.60;;;2.00;;
21213;SDS011;10764;50.850;2.904;2023-02-01T16:35:26;6.80;;;1.67;;
21213;SDS011;10764;50.850;2.904;2023-02-01T16:38:05;6.88;;;1.67;;
21213;SDS011;10764;50.850;2.904;2023-02-01T16:40:40;6.53;;;1.73;;
21213;SDS011;10764;50.850;2.904;2023-02-01T16:43:18;7.97;;;1.83;;
21213;SDS011;10764;50.850;2.904;2023-02-01T16:45:47;5.22;;;1.52;;
21213;SDS011;10764;50.850;2.904;2023-02-01T16:48:24;6.57;;;1.98;;
21213;SDS011;10764;50.850;2.904;2023-02-01T16:50:57;8.63;;;2.00;;
21213;SDS011;10764;50.850;2.904;2023-02-01T16:53:29;8.48;;;1.98;;
21213;SDS011;10764;50.850;2.904;2023-02-01T16:56:23;6.93;;;1.88;;
21213;SDS011;10764;50.850;2.904;2023-02-01T16:58:54;7.57;;;2.05;;
21213;SDS011;10764;50.850;2.904;2023-02-01T17:01:22;6.07;;;1.87;;
21213;SDS011;10764;50.850;2.904;2023-02-01T17:03:50;5.88;;;2.00;;
21213;SDS011;10764;50.850;2.904;2023-02-01T17:06:17;6.82;;;1.92;;
21213;SDS011;10764;50.850;2.904;2023-02-01T17:08:50;5.78;;;1.83;;
21213;SDS011;10764;50.850;2.904;2023-02-01T17:11:18;6.88;;;2.00;;
21213;SDS011;10764;50.850;2.904;2023-02-01T17:13:48;6.32;;;1.77;;
21213;SDS011;10764;50.850;2.904;2023-02-01T17:18:41;7.43;;;1.70;;
21213;SDS011;10764;50.850;2.904;2023-02-01T17:21:08;5.43;;;1.73;;
21213;SDS011;10764;50.850;2.904;2023-02-01T17:23:36;7.63;;;2.20;;
21213;SDS011;10764;50.850;2.904;2023-02-01T17:26:03;5.80;;;1.85;;
21213;SDS011;10764;50.850;2.904;2023-02-01T17:28:30;6.78;;;2.05;;
21213;SDS011;10764;50.850;2.904;2023-02-01T17:30:57;7.72;;;1.83;;
21213;SDS011;10764;50.850;2.904;2023-02-01T17:33:30;7.40;;;1.90;;
21213;SDS011;10764;50.850;2.904;2023-02-01T17:36:02;7.38;;;1.80;;
21213;SDS011;10764;50.850;2.904;2023-02-01T17:38:31;6.70;;;1.90;;
21213;SDS011;10764;50.850;2.904;2023-02-01T17:40:59;6.43;;;2.00;;